sensor_id;sensor_type;location;lat;lon;timestamp;temperature;humidity
35129;DHT22;21301;43.626;10.580;2023-08-21T00:01:21;29.30;99.90
35129;DHT22;21301;43.626;10.580;2023-08-21T00:03:47;29.20;99.90
35129;DHT22;21301;43.626;10.580;2023-08-21T00:06:13;29.30;99.90
35129;DHT22;21301;43.626;10.580;2023-08-21T00:08:38;29.30;99.90
35129;DHT22;21301;43.626;10.580;2023-08-21T00:11:04;29.30;99.90
35129;DHT22;21301;43.626;10.580;2023-08-21T00:13:30;29.40;99.90
35129;DHT22;21301;43.626;10.580;2023-08-21T00:15:56;29.30;99.90
35129;DHT22;21301;43.626;10.580;2023-08-21T00:18:22;29.30;99.90
35129;DHT22;21301;43.626;10.580;2023-08-21T00:20:48;29.30;99.90
35129;DHT22;21301;43.626;10.580;2023-08-21T00:23:14;29.30;99.90
35129;DHT22;21301;43.626;10.580;2023-08-21T00:25:45;29.20;99.90
35129;DHT22;21301;43.626;10.580;2023-08-21T00:28:11;29.30;99.90
35129;DHT22;21301;43.626;10.580;2023-08-21T00:30:37;29.30;99.90
35129;DHT22;21301;43.626;10.580;2023-08-21T00:33:03;29.30;99.90
35129;DHT22;21301;43.626;10.580;2023-08-21T00:35:29;29.20;99.90
35129;DHT22;21301;43.626;10.580;2023-08-21T00:37:55;29.20;99.90
35129;DHT22;21301;43.626;10.580;2023-08-21T00:40:21;29.10;99.90
35129;DHT22;21301;43.626;10.580;2023-08-21T00:42:46;29.10;99.90
35129;DHT22;21301;43.626;10.580;2023-08-21T00:45:12;28.90;99.90
35129;DHT22;21301;43.626;10.580;2023-08-21T00:47:39;28.70;99.90
35129;DHT22;21301;43.626;10.580;2023-08-21T00:50:06;28.50;99.90
35129;DHT22;21301;43.626;10.580;2023-08-21T00:52:37;28.40;99.90
35129;DHT22;21301;43.626;10.580;2023-08-21T00:55:06;28.20;99.90
35129;DHT22;21301;43.626;10.580;2023-08-21T00:57:33;28.10;99.90
35129;DHT22;21301;43.626;10.580;2023-08-21T01:00:00;28.00;99.90
35129;DHT22;21301;43.626;10.580;2023-08-21T01:02:26;28.10;99.90
35129;DHT22;21301;43.626;10.580;2023-08-21T01:04:53;28.10;99.90
35129;DHT22;21301;43.626;10.580;2023-08-21T01:07:18;28.10;99.90
35129;DHT22;21301;43.626;10.580;2023-08-21T01:10:01;28.20;99.90
35129;DHT22;21301;43.626;10.580;2023-08-21T01:12:41;28.20;99.90
35129;DHT22;21301;43.626;10.580;2023-08-21T01:15:12;28.20;99.90
35129;DHT22;21301;43.626;10.580;2023-08-21T01:17:39;28.10;99.90
35129;DHT22;21301;43.626;10.580;2023-08-21T01:20:07;28.00;99.90
35129;DHT22;21301;43.626;10.580;2023-08-21T01:22:40;27.90;99.90
35129;DHT22;21301;43.626;10.580;2023-08-21T01:25:08;27.90;99.90
35129;DHT22;21301;43.626;10.580;2023-08-21T01:27:37;27.70;99.90
35129;DHT22;21301;43.626;10.580;2023-08-21T01:30:04;27.30;99.90
35129;DHT22;21301;43.626;10.580;2023-08-21T01:35:22;27.60;99.90
35129;DHT22;21301;43.626;10.580;2023-08-21T01:37:49;27.50;99.90
35129;DHT22;21301;43.626;10.580;2023-08-21T01:40:22;27.60;99.90
35129;DHT22;21301;43.626;10.580;2023-08-21T01:42:48;27.60;99.90
35129;DHT22;21301;43.626;10.580;2023-08-21T01:45:14;27.50;99.90
35129;DHT22;21301;43.626;10.580;2023-08-21T01:47:40;27.70;99.90
35129;DHT22;21301;43.626;10.580;2023-08-21T01:50:07;27.70;99.90
35129;DHT22;21301;43.626;10.580;2023-08-21T01:52:33;27.80;99.90
35129;DHT22;21301;43.626;10.580;2023-08-21T01:54:59;27.80;99.90
35129;DHT22;21301;43.626;10.580;2023-08-21T01:57:25;27.80;99.90
35129;DHT22;21301;43.626;10.580;2023-08-21T01:59:51;27.80;99.90
35129;DHT22;21301;43.626;10.580;2023-08-21T02:02:17;27.70;99.90
35129;DHT22;21301;43.626;10.580;2023-08-21T02:04:42;27.70;99.90
35129;DHT22;21301;43.626;10.580;2023-08-21T02:07:09;27.80;99.90
35129;DHT22;21301;43.626;10.580;2023-08-21T02:09:35;27.70;99.90
35129;DHT22;21301;43.626;10.580;2023-08-21T02:12:01;27.60;99.90
35129;DHT22;21301;43.626;10.580;2023-08-21T02:14:27;27.50;99.90
35129;DHT22;21301;43.626;10.580;2023-08-21T02:16:53;27.50;99.90
35129;DHT22;21301;43.626;10.580;2023-08-21T02:19:19;27.60;99.90
35129;DHT22;21301;43.626;10.580;2023-08-21T02:21:45;27.60;99.90
35129;DHT22;21301;43.626;10.580;2023-08-21T02:24:10;27.60;99.90
35129;DHT22;21301;43.626;10.580;2023-08-21T02:26:38;27.60;99.90
35129;DHT22;21301;43.626;10.580;2023-08-21T02:29:03;27.60;99.90
35129;DHT22;21301;43.626;10.580;2023-08-21T02:31:29;27.60;99.90
35129;DHT22;21301;43.626;10.580;2023-08-21T02:33:55;27.20;99.90
35129;DHT22;21301;43.626;10.580;2023-08-21T02:36:21;27.10;99.90
35129;DHT22;21301;43.626;10.580;2023-08-21T02:38:49;27.10;99.90
35129;DHT22;21301;43.626;10.580;2023-08-21T02:41:15;27.10;99.90
35129;DHT22;21301;43.626;10.580;2023-08-21T02:43:41;27.20;99.90
35129;DHT22;21301;43.626;10.580;2023-08-21T02:46:06;27.10;99.90
35129;DHT22;21301;43.626;10.580;2023-08-21T02:48:32;26.80;99.90
35129;DHT22;21301;43.626;10.580;2023-08-21T02:51:00;26.50;1.00
35129;DHT22;21301;43.626;10.580;2023-08-21T02:53:28;26.60;1.00
35129;DHT22;21301;43.626;10.580;2023-08-21T02:55:54;26.60;1.00
35129;DHT22;21301;43.626;10.580;2023-08-21T02:58:20;26.60;1.00
35129;DHT22;21301;43.626;10.580;2023-08-21T03:00:46;26.50;1.00
35129;DHT22;21301;43.626;10.580;2023-08-21T03:03:12;26.60;1.00
35129;DHT22;21301;43.626;10.580;2023-08-21T03:05:38;26.40;1.00
35129;DHT22;21301;43.626;10.580;2023-08-21T03:08:04;26.70;1.00
35129;DHT22;21301;43.626;10.580;2023-08-21T03:10:30;26.30;1.00
35129;DHT22;21301;43.626;10.580;2023-08-21T03:13:01;26.50;1.00
35129;DHT22;21301;43.626;10.580;2023-08-21T03:15:27;26.40;1.00
35129;DHT22;21301;43.626;10.580;2023-08-21T03:17:52;26.50;1.00
35129;DHT22;21301;43.626;10.580;2023-08-21T03:20:18;26.20;1.00
35129;DHT22;21301;43.626;10.580;2023-08-21T03:22:45;25.70;44.10
35129;DHT22;21301;43.626;10.580;2023-08-21T03:25:11;26.00;25.50
35129;DHT22;21301;43.626;10.580;2023-08-21T03:27:37;26.00;18.00
35129;DHT22;21301;43.626;10.580;2023-08-21T03:30:07;26.10;12.30
35129;DHT22;21301;43.626;10.580;2023-08-21T03:32:33;26.10;11.30
35129;DHT22;21301;43.626;10.580;2023-08-21T03:35:00;26.10;13.30
35129;DHT22;21301;43.626;10.580;2023-08-21T03:37:26;26.10;9.30
35129;DHT22;21301;43.626;10.580;2023-08-21T03:39:52;26.10;13.90
35129;DHT22;21301;43.626;10.580;2023-08-21T03:42:18;26.00;9.40
35129;DHT22;21301;43.626;10.580;2023-08-21T03:44:44;25.60;58.10
35129;DHT22;21301;43.626;10.580;2023-08-21T03:47:14;25.50;90.50
35129;DHT22;21301;43.626;10.580;2023-08-21T03:49:49;25.40;99.90
35129;DHT22;21301;43.626;10.580;2023-08-21T03:52:16;25.40;99.90
35129;DHT22;21301;43.626;10.580;2023-08-21T03:54:43;25.50;99.90
35129;DHT22;21301;43.626;10.580;2023-08-21T03:57:08;25.40;99.90
35129;DHT22;21301;43.626;10.580;2023-08-21T03:59:34;25.30;99.90
35129;DHT22;21301;43.626;10.580;2023-08-21T04:02:00;25.20;99.90
35129;DHT22;21301;43.626;10.580;2023-08-21T04:04:26;25.10;99.90
35129;DHT22;21301;43.626;10.580;2023-08-21T04:06:52;25.10;99.90
35129;DHT22;21301;43.626;10.580;2023-08-21T04:09:18;25.10;99.90
35129;DHT22;21301;43.626;10.580;2023-08-21T04:11:43;25.00;99.90
35129;DHT22;21301;43.626;10.580;2023-08-21T04:14:09;25.10;99.90
35129;DHT22;21301;43.626;10.580;2023-08-21T04:16:35;24.80;99.90
35129;DHT22;21301;43.626;10.580;2023-08-21T04:19:01;24.70;1.00
35129;DHT22;21301;43.626;10.580;2023-08-21T04:21:26;24.50;22.60
35129;DHT22;21301;43.626;10.580;2023-08-21T04:23:52;24.70;1.00
35129;DHT22;21301;43.626;10.580;2023-08-21T04:26:19;24.90;99.90
35129;DHT22;21301;43.626;10.580;2023-08-21T04:28:46;25.00;99.90
35129;DHT22;21301;43.626;10.580;2023-08-21T04:31:11;24.90;99.90
35129;DHT22;21301;43.626;10.580;2023-08-21T04:33:37;24.90;99.90
35129;DHT22;21301;43.626;10.580;2023-08-21T04:36:03;24.70;99.90
35129;DHT22;21301;43.626;10.580;2023-08-21T04:38:29;24.60;1.00
35129;DHT22;21301;43.626;10.580;2023-08-21T04:40:55;24.20;99.90
35129;DHT22;21301;43.626;10.580;2023-08-21T04:43:21;24.30;99.90
35129;DHT22;21301;43.626;10.580;2023-08-21T04:45:50;24.30;99.90
35129;DHT22;21301;43.626;10.580;2023-08-21T04:48:19;24.20;1.00
35129;DHT22;21301;43.626;10.580;2023-08-21T04:50:47;24.50;99.90
35129;DHT22;21301;43.626;10.580;2023-08-21T04:53:13;24.50;99.90
35129;DHT22;21301;43.626;10.580;2023-08-21T04:55:40;24.50;99.90
35129;DHT22;21301;43.626;10.580;2023-08-21T04:58:08;24.70;99.90
35129;DHT22;21301;43.626;10.580;2023-08-21T05:00:33;25.30;14.60
35129;DHT22;21301;43.626;10.580;2023-08-21T05:02:59;25.70;99.90
35129;DHT22;21301;43.626;10.580;2023-08-21T05:05:25;26.10;99.90
35129;DHT22;21301;43.626;10.580;2023-08-21T05:07:53;26.20;99.90
35129;DHT22;21301;43.626;10.580;2023-08-21T05:10:19;26.50;99.90
35129;DHT22;21301;43.626;10.580;2023-08-21T05:12:45;26.50;99.90
35129;DHT22;21301;43.626;10.580;2023-08-21T05:15:12;26.70;99.90
35129;DHT22;21301;43.626;10.580;2023-08-21T05:17:38;27.30;42.60
35129;DHT22;21301;43.626;10.580;2023-08-21T05:20:04;27.50;12.00
35129;DHT22;21301;43.626;10.580;2023-08-21T05:22:31;28.10;1.00
35129;DHT22;21301;43.626;10.580;2023-08-21T05:24:57;28.60;1.00
35129;DHT22;21301;43.626;10.580;2023-08-21T05:27:24;29.00;1.00
35129;DHT22;21301;43.626;10.580;2023-08-21T05:29:49;29.40;99.90
35129;DHT22;21301;43.626;10.580;2023-08-21T05:32:17;29.30;99.90
35129;DHT22;21301;43.626;10.580;2023-08-21T05:34:43;29.10;99.90
35129;DHT22;21301;43.626;10.580;2023-08-21T05:37:11;29.40;99.90
35129;DHT22;21301;43.626;10.580;2023-08-21T05:39:36;29.30;99.90
35129;DHT22;21301;43.626;10.580;2023-08-21T05:42:03;29.30;99.90
35129;DHT22;21301;43.626;10.580;2023-08-21T05:44:31;29.30;99.90
35129;DHT22;21301;43.626;10.580;2023-08-21T05:46:57;29.50;99.90
35129;DHT22;21301;43.626;10.580;2023-08-21T05:49:23;29.50;99.90
35129;DHT22;21301;43.626;10.580;2023-08-21T05:51:49;29.60;99.90
35129;DHT22;21301;43.626;10.580;2023-08-21T05:54:15;29.80;99.90
35129;DHT22;21301;43.626;10.580;2023-08-21T05:56:41;30.10;99.90
35129;DHT22;21301;43.626;10.580;2023-08-21T05:59:13;30.30;99.90
35129;DHT22;21301;43.626;10.580;2023-08-21T06:02:05;30.40;99.90
35129;DHT22;21301;43.626;10.580;2023-08-21T06:04:31;30.70;99.90
35129;DHT22;21301;43.626;10.580;2023-08-21T06:07:01;30.90;99.90
35129;DHT22;21301;43.626;10.580;2023-08-21T06:09:29;31.20;99.90
35129;DHT22;21301;43.626;10.580;2023-08-21T06:11:55;31.70;99.90
35129;DHT22;21301;43.626;10.580;2023-08-21T06:14:21;31.90;99.90
35129;DHT22;21301;43.626;10.580;2023-08-21T06:16:57;32.10;99.90
35129;DHT22;21301;43.626;10.580;2023-08-21T06:19:23;32.50;99.90
35129;DHT22;21301;43.626;10.580;2023-08-21T06:21:49;32.90;99.90
35129;DHT22;21301;43.626;10.580;2023-08-21T06:24:15;32.90;99.90
35129;DHT22;21301;43.626;10.580;2023-08-21T06:26:41;33.10;99.90
35129;DHT22;21301;43.626;10.580;2023-08-21T06:29:06;33.10;99.90
35129;DHT22;21301;43.626;10.580;2023-08-21T06:31:32;32.90;99.90
35129;DHT22;21301;43.626;10.580;2023-08-21T06:33:58;33.10;99.90
35129;DHT22;21301;43.626;10.580;2023-08-21T06:36:24;32.70;99.90
35129;DHT22;21301;43.626;10.580;2023-08-21T06:38:56;32.80;99.90
35129;DHT22;21301;43.626;10.580;2023-08-21T06:41:21;33.20;99.90
35129;DHT22;21301;43.626;10.580;2023-08-21T06:43:49;33.30;99.90
35129;DHT22;21301;43.626;10.580;2023-08-21T06:46:18;33.70;99.90
35129;DHT22;21301;43.626;10.580;2023-08-21T06:52:31;34.20;99.90
35129;DHT22;21301;43.626;10.580;2023-08-21T06:58:44;34.10;99.90
35129;DHT22;21301;43.626;10.580;2023-08-21T07:01:10;34.10;99.90
35129;DHT22;21301;43.626;10.580;2023-08-21T07:03:36;34.20;99.90
35129;DHT22;21301;43.626;10.580;2023-08-21T07:06:02;34.50;99.90
35129;DHT22;21301;43.626;10.580;2023-08-21T07:08:28;34.60;99.90
35129;DHT22;21301;43.626;10.580;2023-08-21T07:10:54;34.70;99.90
35129;DHT22;21301;43.626;10.580;2023-08-21T07:13:20;34.60;99.90
35129;DHT22;21301;43.626;10.580;2023-08-21T07:15:46;34.60;99.90
35129;DHT22;21301;43.626;10.580;2023-08-21T07:18:14;34.80;99.90
35129;DHT22;21301;43.626;10.580;2023-08-21T07:20:39;35.20;99.90
35129;DHT22;21301;43.626;10.580;2023-08-21T07:23:05;35.10;99.90
35129;DHT22;21301;43.626;10.580;2023-08-21T07:25:31;35.40;99.90
35129;DHT22;21301;43.626;10.580;2023-08-21T07:27:57;35.70;99.90
35129;DHT22;21301;43.626;10.580;2023-08-21T07:30:24;35.80;99.90
35129;DHT22;21301;43.626;10.580;2023-08-21T07:32:50;35.80;99.90
35129;DHT22;21301;43.626;10.580;2023-08-21T07:35:16;36.00;99.90
35129;DHT22;21301;43.626;10.580;2023-08-21T07:37:45;36.00;99.90
35129;DHT22;21301;43.626;10.580;2023-08-21T07:40:12;36.40;99.90
35129;DHT22;21301;43.626;10.580;2023-08-21T07:42:38;36.30;99.90
35129;DHT22;21301;43.626;10.580;2023-08-21T07:45:04;36.40;99.90
35129;DHT22;21301;43.626;10.580;2023-08-21T07:47:30;36.40;99.90
35129;DHT22;21301;43.626;10.580;2023-08-21T07:49:56;36.30;99.90
35129;DHT22;21301;43.626;10.580;2023-08-21T07:52:23;36.20;99.90
35129;DHT22;21301;43.626;10.580;2023-08-21T07:54:53;36.10;99.90
35129;DHT22;21301;43.626;10.580;2023-08-21T07:57:19;36.30;99.90
35129;DHT22;21301;43.626;10.580;2023-08-21T07:59:45;36.40;99.90
35129;DHT22;21301;43.626;10.580;2023-08-21T08:02:10;36.60;99.90
35129;DHT22;21301;43.626;10.580;2023-08-21T08:04:38;36.70;99.90
35129;DHT22;21301;43.626;10.580;2023-08-21T08:07:04;36.80;99.90
35129;DHT22;21301;43.626;10.580;2023-08-21T08:09:30;36.90;99.90
35129;DHT22;21301;43.626;10.580;2023-08-21T08:11:56;37.20;99.90
35129;DHT22;21301;43.626;10.580;2023-08-21T08:14:22;37.40;99.90
35129;DHT22;21301;43.626;10.580;2023-08-21T08:17:18;37.40;99.90
35129;DHT22;21301;43.626;10.580;2023-08-21T08:20:19;37.30;99.90
35129;DHT22;21301;43.626;10.580;2023-08-21T08:22:46;37.60;99.90
35129;DHT22;21301;43.626;10.580;2023-08-21T08:25:18;37.60;99.90
35129;DHT22;21301;43.626;10.580;2023-08-21T08:27:44;37.90;99.90
35129;DHT22;21301;43.626;10.580;2023-08-21T08:30:10;37.90;99.90
35129;DHT22;21301;43.626;10.580;2023-08-21T08:32:36;37.80;99.90
35129;DHT22;21301;43.626;10.580;2023-08-21T08:35:02;37.90;99.90
35129;DHT22;21301;43.626;10.580;2023-08-21T08:37:28;38.10;99.90
35129;DHT22;21301;43.626;10.580;2023-08-21T08:39:54;38.40;99.90
35129;DHT22;21301;43.626;10.580;2023-08-21T08:42:20;38.30;99.90
35129;DHT22;21301;43.626;10.580;2023-08-21T08:44:47;38.50;99.90
35129;DHT22;21301;43.626;10.580;2023-08-21T08:47:13;38.60;99.90
35129;DHT22;21301;43.626;10.580;2023-08-21T08:49:40;38.70;99.90
35129;DHT22;21301;43.626;10.580;2023-08-21T08:52:06;38.70;99.90
35129;DHT22;21301;43.626;10.580;2023-08-21T08:54:33;38.40;99.90
35129;DHT22;21301;43.626;10.580;2023-08-21T08:57:01;38.40;99.90
35129;DHT22;21301;43.626;10.580;2023-08-21T08:59:30;38.60;99.90
35129;DHT22;21301;43.626;10.580;2023-08-21T09:01:56;38.70;99.90
35129;DHT22;21301;43.626;10.580;2023-08-21T09:04:22;38.90;99.90
35129;DHT22;21301;43.626;10.580;2023-08-21T09:06:48;39.10;99.90
35129;DHT22;21301;43.626;10.580;2023-08-21T09:09:14;39.10;99.90
35129;DHT22;21301;43.626;10.580;2023-08-21T09:11:46;39.00;99.90
35129;DHT22;21301;43.626;10.580;2023-08-21T09:14:13;38.90;99.90
35129;DHT22;21301;43.626;10.580;2023-08-21T09:17:00;38.90;99.90
35129;DHT22;21301;43.626;10.580;2023-08-21T09:19:32;38.80;99.90
35129;DHT22;21301;43.626;10.580;2023-08-21T09:22:03;38.60;99.90
35129;DHT22;21301;43.626;10.580;2023-08-21T09:24:33;38.70;99.90
35129;DHT22;21301;43.626;10.580;2023-08-21T09:26:59;38.50;99.90
35129;DHT22;21301;43.626;10.580;2023-08-21T09:29:38;38.80;99.90
35129;DHT22;21301;43.626;10.580;2023-08-21T09:32:04;38.80;99.90
35129;DHT22;21301;43.626;10.580;2023-08-21T09:34:34;38.80;99.90
35129;DHT22;21301;43.626;10.580;2023-08-21T09:37:05;38.60;99.90
35129;DHT22;21301;43.626;10.580;2023-08-21T09:39:35;38.50;99.90
35129;DHT22;21301;43.626;10.580;2023-08-21T09:42:06;38.90;99.90
35129;DHT22;21301;43.626;10.580;2023-08-21T09:44:39;38.90;99.90
35129;DHT22;21301;43.626;10.580;2023-08-21T09:47:11;39.10;99.90
35129;DHT22;21301;43.626;10.580;2023-08-21T09:49:39;38.90;99.90
35129;DHT22;21301;43.626;10.580;2023-08-21T09:52:08;38.70;99.90
35129;DHT22;21301;43.626;10.580;2023-08-21T09:54:38;38.70;99.90
35129;DHT22;21301;43.626;10.580;2023-08-21T09:57:04;39.10;99.90
35129;DHT22;21301;43.626;10.580;2023-08-21T09:59:31;38.90;99.90
35129;DHT22;21301;43.626;10.580;2023-08-21T10:01:59;39.40;99.90
35129;DHT22;21301;43.626;10.580;2023-08-21T10:04:28;39.80;99.90
35129;DHT22;21301;43.626;10.580;2023-08-21T10:06:56;39.50;99.90
35129;DHT22;21301;43.626;10.580;2023-08-21T10:09:23;39.30;99.90
35129;DHT22;21301;43.626;10.580;2023-08-21T10:11:50;39.60;99.90
35129;DHT22;21301;43.626;10.580;2023-08-21T10:14:19;39.60;99.90
35129;DHT22;21301;43.626;10.580;2023-08-21T10:16:45;39.80;99.90
35129;DHT22;21301;43.626;10.580;2023-08-21T10:19:14;39.70;99.90
35129;DHT22;21301;43.626;10.580;2023-08-21T10:21:40;39.40;99.90
35129;DHT22;21301;43.626;10.580;2023-08-21T10:24:06;38.90;99.90
35129;DHT22;21301;43.626;10.580;2023-08-21T10:26:38;39.30;99.90
35129;DHT22;21301;43.626;10.580;2023-08-21T10:29:05;39.80;99.90
35129;DHT22;21301;43.626;10.580;2023-08-21T10:31:38;39.90;99.90
35129;DHT22;21301;43.626;10.580;2023-08-21T10:34:09;39.60;99.90
35129;DHT22;21301;43.626;10.580;2023-08-21T10:39:22;39.50;99.90
35129;DHT22;21301;43.626;10.580;2023-08-21T10:42:01;39.40;99.90
35129;DHT22;21301;43.626;10.580;2023-08-21T10:47:21;39.70;99.90
35129;DHT22;21301;43.626;10.580;2023-08-21T10:49:53;39.80;99.90
35129;DHT22;21301;43.626;10.580;2023-08-21T10:52:22;40.00;99.90
35129;DHT22;21301;43.626;10.580;2023-08-21T10:54:54;40.30;99.90
35129;DHT22;21301;43.626;10.580;2023-08-21T10:57:21;40.70;99.90
35129;DHT22;21301;43.626;10.580;2023-08-21T10:59:58;41.00;99.90
35129;DHT22;21301;43.626;10.580;2023-08-21T11:02:25;40.70;99.90
35129;DHT22;21301;43.626;10.580;2023-08-21T11:08:54;39.80;99.90
35129;DHT22;21301;43.626;10.580;2023-08-21T11:11:21;40.30;99.90
35129;DHT22;21301;43.626;10.580;2023-08-21T11:13:53;40.90;99.90
35129;DHT22;21301;43.626;10.580;2023-08-21T11:16:19;40.80;99.90
35129;DHT22;21301;43.626;10.580;2023-08-21T11:18:45;40.90;99.90
35129;DHT22;21301;43.626;10.580;2023-08-21T11:21:12;41.00;99.90
35129;DHT22;21301;43.626;10.580;2023-08-21T11:23:39;40.50;99.90
35129;DHT22;21301;43.626;10.580;2023-08-21T11:26:06;40.20;99.90
35129;DHT22;21301;43.626;10.580;2023-08-21T11:28:33;40.30;99.90
35129;DHT22;21301;43.626;10.580;2023-08-21T11:30:59;40.20;99.90
35129;DHT22;21301;43.626;10.580;2023-08-21T11:33:26;39.90;99.90
35129;DHT22;21301;43.626;10.580;2023-08-21T11:35:52;40.00;99.90
35129;DHT22;21301;43.626;10.580;2023-08-21T11:38:20;40.20;99.90
35129;DHT22;21301;43.626;10.580;2023-08-21T11:40:54;40.20;99.90
35129;DHT22;21301;43.626;10.580;2023-08-21T11:43:20;40.20;99.90
35129;DHT22;21301;43.626;10.580;2023-08-21T11:45:46;40.00;99.90
35129;DHT22;21301;43.626;10.580;2023-08-21T11:48:12;39.10;99.90
35129;DHT22;21301;43.626;10.580;2023-08-21T11:50:39;38.80;99.90
35129;DHT22;21301;43.626;10.580;2023-08-21T11:53:05;38.80;99.90
35129;DHT22;21301;43.626;10.580;2023-08-21T11:55:31;38.90;99.90
35129;DHT22;21301;43.626;10.580;2023-08-21T15:22:00;39.10;99.90
35129;DHT22;21301;43.626;10.580;2023-08-21T15:24:26;39.30;99.90
35129;DHT22;21301;43.626;10.580;2023-08-21T15:26:52;39.30;99.90
35129;DHT22;21301;43.626;10.580;2023-08-21T15:29:19;39.30;99.90
35129;DHT22;21301;43.626;10.580;2023-08-21T15:31:45;39.30;99.90
35129;DHT22;21301;43.626;10.580;2023-08-21T15:34:11;39.20;99.90
35129;DHT22;21301;43.626;10.580;2023-08-21T15:36:38;39.10;99.90
35129;DHT22;21301;43.626;10.580;2023-08-21T15:39:05;39.00;99.90
35129;DHT22;21301;43.626;10.580;2023-08-21T15:41:31;39.10;99.90
35129;DHT22;21301;43.626;10.580;2023-08-21T15:43:57;39.00;99.90
35129;DHT22;21301;43.626;10.580;2023-08-21T15:46:23;38.90;99.90
35129;DHT22;21301;43.626;10.580;2023-08-21T15:48:53;39.00;99.90
35129;DHT22;21301;43.626;10.580;2023-08-21T15:51:19;39.10;99.90
35129;DHT22;21301;43.626;10.580;2023-08-21T15:53:45;39.10;99.90
35129;DHT22;21301;43.626;10.580;2023-08-21T15:56:11;39.10;99.90
35129;DHT22;21301;43.626;10.580;2023-08-21T15:58:36;38.90;99.90
35129;DHT22;21301;43.626;10.580;2023-08-21T16:01:02;38.70;99.90
35129;DHT22;21301;43.626;10.580;2023-08-21T16:03:28;38.40;99.90
35129;DHT22;21301;43.626;10.580;2023-08-21T16:05:54;38.60;99.90
35129;DHT22;21301;43.626;10.580;2023-08-21T16:08:20;38.60;99.90
35129;DHT22;21301;43.626;10.580;2023-08-21T16:10:45;38.70;99.90
35129;DHT22;21301;43.626;10.580;2023-08-21T16:13:11;38.70;99.90
35129;DHT22;21301;43.626;10.580;2023-08-21T16:15:38;38.80;99.90
35129;DHT22;21301;43.626;10.580;2023-08-21T16:18:04;38.80;99.90
35129;DHT22;21301;43.626;10.580;2023-08-21T16:20:30;38.80;99.90
35129;DHT22;21301;43.626;10.580;2023-08-21T16:22:58;38.70;99.90
35129;DHT22;21301;43.626;10.580;2023-08-21T16:25:23;38.60;99.90
35129;DHT22;21301;43.626;10.580;2023-08-21T16:27:50;38.40;99.90
35129;DHT22;21301;43.626;10.580;2023-08-21T16:30:15;38.50;99.90
35129;DHT22;21301;43.626;10.580;2023-08-21T16:32:41;38.50;99.90
35129;DHT22;21301;43.626;10.580;2023-08-21T16:35:07;38.30;99.90
35129;DHT22;21301;43.626;10.580;2023-08-21T16:37:33;38.40;99.90
35129;DHT22;21301;43.626;10.580;2023-08-21T16:39:59;38.60;99.90
35129;DHT22;21301;43.626;10.580;2023-08-21T16:44:35;38.50;99.90
35129;DHT22;21301;43.626;10.580;2023-08-21T16:47:01;38.40;99.90
35129;DHT22;21301;43.626;10.580;2023-08-21T16:49:27;38.40;99.90
35129;DHT22;21301;43.626;10.580;2023-08-21T16:51:53;38.60;99.90
35129;DHT22;21301;43.626;10.580;2023-08-21T16:54:18;38.60;99.90
35129;DHT22;21301;43.626;10.580;2023-08-21T16:56:46;38.50;99.90
35129;DHT22;21301;43.626;10.580;2023-08-21T16:59:12;38.40;99.90
35129;DHT22;21301;43.626;10.580;2023-08-21T17:01:38;38.20;99.90
35129;DHT22;21301;43.626;10.580;2023-08-21T17:04:04;38.10;99.90
35129;DHT22;21301;43.626;10.580;2023-08-21T17:06:29;38.00;99.90
35129;DHT22;21301;43.626;10.580;2023-08-21T17:08:55;38.00;99.90
35129;DHT22;21301;43.626;10.580;2023-08-21T17:11:21;38.00;99.90
35129;DHT22;21301;43.626;10.580;2023-08-21T17:13:48;37.90;99.90
35129;DHT22;21301;43.626;10.580;2023-08-21T17:16:18;37.90;99.90
35129;DHT22;21301;43.626;10.580;2023-08-21T17:18:44;37.40;99.90
35129;DHT22;21301;43.626;10.580;2023-08-21T17:21:10;37.00;99.90
35129;DHT22;21301;43.626;10.580;2023-08-21T17:23:38;36.50;99.90
35129;DHT22;21301;43.626;10.580;2023-08-21T17:26:05;36.20;99.90
35129;DHT22;21301;43.626;10.580;2023-08-21T17:28:33;36.10;99.90
35129;DHT22;21301;43.626;10.580;2023-08-21T17:30:58;35.90;99.90
35129;DHT22;21301;43.626;10.580;2023-08-21T17:33:24;35.90;99.90
35129;DHT22;21301;43.626;10.580;2023-08-21T17:35:51;35.80;99.90
35129;DHT22;21301;43.626;10.580;2023-08-21T17:38:17;35.50;99.90
35129;DHT22;21301;43.626;10.580;2023-08-21T17:40:43;35.70;99.90
35129;DHT22;21301;43.626;10.580;2023-08-21T17:43:10;35.70;99.90
35129;DHT22;21301;43.626;10.580;2023-08-21T17:45:36;35.50;99.90
35129;DHT22;21301;43.626;10.580;2023-08-21T17:48:02;35.40;99.90
35129;DHT22;21301;43.626;10.580;2023-08-21T17:50:28;35.30;99.90
35129;DHT22;21301;43.626;10.580;2023-08-21T17:52:54;35.20;99.90
35129;DHT22;21301;43.626;10.580;2023-08-21T17:55:20;35.20;99.90
35129;DHT22;21301;43.626;10.580;2023-08-21T17:57:46;35.20;99.90
35129;DHT22;21301;43.626;10.580;2023-08-21T18:00:13;35.20;99.90
35129;DHT22;21301;43.626;10.580;2023-08-21T18:02:41;34.90;99.90
35129;DHT22;21301;43.626;10.580;2023-08-21T18:05:08;34.60;99.90
35129;DHT22;21301;43.626;10.580;2023-08-21T18:07:35;34.30;99.90
35129;DHT22;21301;43.626;10.580;2023-08-21T18:10:03;33.80;99.90
35129;DHT22;21301;43.626;10.580;2023-08-21T18:12:28;33.60;99.90
35129;DHT22;21301;43.626;10.580;2023-08-21T18:14:54;33.50;99.90
35129;DHT22;21301;43.626;10.580;2023-08-21T18:17:20;33.50;99.90
35129;DHT22;21301;43.626;10.580;2023-08-21T18:19:46;33.30;99.90
35129;DHT22;21301;43.626;10.580;2023-08-21T18:22:12;33.10;99.90
35129;DHT22;21301;43.626;10.580;2023-08-21T18:24:37;32.90;99.90
35129;DHT22;21301;43.626;10.580;2023-08-21T18:27:03;32.60;99.90
35129;DHT22;21301;43.626;10.580;2023-08-21T18:29:31;32.50;99.90
35129;DHT22;21301;43.626;10.580;2023-08-21T18:31:56;32.40;99.90
35129;DHT22;21301;43.626;10.580;2023-08-21T18:34:22;32.30;99.90
35129;DHT22;21301;43.626;10.580;2023-08-21T18:36:50;32.00;99.90
35129;DHT22;21301;43.626;10.580;2023-08-21T18:39:16;31.70;99.90
35129;DHT22;21301;43.626;10.580;2023-08-21T18:41:51;31.70;99.90
35129;DHT22;21301;43.626;10.580;2023-08-21T18:44:17;31.80;99.90
35129;DHT22;21301;43.626;10.580;2023-08-21T18:46:43;32.00;99.90
35129;DHT22;21301;43.626;10.580;2023-08-21T18:49:10;32.20;99.90
35129;DHT22;21301;43.626;10.580;2023-08-21T18:51:36;32.00;99.90
35129;DHT22;21301;43.626;10.580;2023-08-21T18:54:02;31.90;99.90
35129;DHT22;21301;43.626;10.580;2023-08-21T18:56:28;32.00;99.90
35129;DHT22;21301;43.626;10.580;2023-08-21T18:58:55;32.10;99.90
35129;DHT22;21301;43.626;10.580;2023-08-21T19:01:21;32.20;99.90
35129;DHT22;21301;43.626;10.580;2023-08-21T19:03:46;32.30;99.90